sensor_id;sensor_type;location;lat;lon;timestamp;temperature;humidity
8939;DHT22;4504;48.810;9.172;2023-01-30T00:00:52;0.30;99.90
8939;DHT22;4504;48.810;9.172;2023-01-30T00:03:22;0.30;99.90
8939;DHT22;4504;48.810;9.172;2023-01-30T00:05:49;0.30;99.90
8939;DHT22;4504;48.810;9.172;2023-01-30T00:08:16;0.30;99.90
8939;DHT22;4504;48.810;9.172;2023-01-30T00:10:44;0.30;99.90
8939;DHT22;4504;48.810;9.172;2023-01-30T00:13:11;0.20;99.90
8939;DHT22;4504;48.810;9.172;2023-01-30T00:15:39;0.20;99.90
8939;DHT22;4504;48.810;9.172;2023-01-30T00:18:06;0.20;99.90
8939;DHT22;4504;48.810;9.172;2023-01-30T00:20:35;0.20;99.90
8939;DHT22;4504;48.810;9.172;2023-01-30T00:23:02;0.20;99.90
8939;DHT22;4504;48.810;9.172;2023-01-30T00:25:30;0.20;99.90
8939;DHT22;4504;48.810;9.172;2023-01-30T00:27:59;0.20;99.90
8939;DHT22;4504;48.810;9.172;2023-01-30T00:30:26;0.20;99.90
8939;DHT22;4504;48.810;9.172;2023-01-30T00:32:57;0.20;99.90
8939;DHT22;4504;48.810;9.172;2023-01-30T00:35:25;0.20;99.90
8939;DHT22;4504;48.810;9.172;2023-01-30T00:37:59;0.20;99.90
8939;DHT22;4504;48.810;9.172;2023-01-30T00:40:27;0.20;99.90
8939;DHT22;4504;48.810;9.172;2023-01-30T00:42:54;0.20;99.90
8939;DHT22;4504;48.810;9.172;2023-01-30T00:45:41;0.20;99.90
8939;DHT22;4504;48.810;9.172;2023-01-30T00:48:27;0.20;99.90
8939;DHT22;4504;48.810;9.172;2023-01-30T00:50:54;0.10;99.90
8939;DHT22;4504;48.810;9.172;2023-01-30T00:53:23;0.10;99.90
8939;DHT22;4504;48.810;9.172;2023-01-30T00:55:50;0.10;99.90
8939;DHT22;4504;48.810;9.172;2023-01-30T00:58:17;0.10;99.90
8939;DHT22;4504;48.810;9.172;2023-01-30T01:00:44;0.10;99.90
8939;DHT22;4504;48.810;9.172;2023-01-30T01:03:11;0.10;99.90
8939;DHT22;4504;48.810;9.172;2023-01-30T01:05:38;0.10;99.90
8939;DHT22;4504;48.810;9.172;2023-01-30T01:08:05;0.00;99.90
8939;DHT22;4504;48.810;9.172;2023-01-30T01:10:33;0.00;99.90
8939;DHT22;4504;48.810;9.172;2023-01-30T01:13:00;0.00;99.90
8939;DHT22;4504;48.810;9.172;2023-01-30T01:15:29;0.00;99.90
8939;DHT22;4504;48.810;9.172;2023-01-30T01:17:56;0.00;99.90
8939;DHT22;4504;48.810;9.172;2023-01-30T01:20:23;-0.10;99.90
8939;DHT22;4504;48.810;9.172;2023-01-30T01:22:52;-0.10;99.90
8939;DHT22;4504;48.810;9.172;2023-01-30T01:25:20;-0.10;99.90
8939;DHT22;4504;48.810;9.172;2023-01-30T01:27:48;-0.10;99.90
8939;DHT22;4504;48.810;9.172;2023-01-30T01:30:16;-0.20;99.90
8939;DHT22;4504;48.810;9.172;2023-01-30T01:32:43;-0.20;99.90
8939;DHT22;4504;48.810;9.172;2023-01-30T01:35:10;-0.20;99.90
8939;DHT22;4504;48.810;9.172;2023-01-30T01:37:37;-0.20;99.90
8939;DHT22;4504;48.810;9.172;2023-01-30T01:40:06;-0.20;99.90
8939;DHT22;4504;48.810;9.172;2023-01-30T01:42:52;-0.20;99.90
8939;DHT22;4504;48.810;9.172;2023-01-30T01:45:21;-0.20;99.90
8939;DHT22;4504;48.810;9.172;2023-01-30T01:47:57;-0.20;99.90
8939;DHT22;4504;48.810;9.172;2023-01-30T01:50:27;-0.20;99.90
8939;DHT22;4504;48.810;9.172;2023-01-30T01:52:59;-0.20;99.90
8939;DHT22;4504;48.810;9.172;2023-01-30T01:55:28;-0.20;99.90
8939;DHT22;4504;48.810;9.172;2023-01-30T01:58:00;-0.20;99.90
8939;DHT22;4504;48.810;9.172;2023-01-30T02:00:30;-0.20;99.90
8939;DHT22;4504;48.810;9.172;2023-01-30T02:02:59;-0.20;99.90
8939;DHT22;4504;48.810;9.172;2023-01-30T02:05:31;-0.20;99.90
8939;DHT22;4504;48.810;9.172;2023-01-30T02:08:03;-0.20;99.90
8939;DHT22;4504;48.810;9.172;2023-01-30T02:10:40;-0.20;99.90
8939;DHT22;4504;48.810;9.172;2023-01-30T02:13:10;-0.20;99.90
8939;DHT22;4504;48.810;9.172;2023-01-30T02:15:38;-0.10;99.90
8939;DHT22;4504;48.810;9.172;2023-01-30T02:18:06;-0.10;99.90
8939;DHT22;4504;48.810;9.172;2023-01-30T02:20:53;-0.10;99.90
8939;DHT22;4504;48.810;9.172;2023-01-30T02:26:54;-0.10;99.90
8939;DHT22;4504;48.810;9.172;2023-01-30T02:32:53;-0.10;99.90
8939;DHT22;4504;48.810;9.172;2023-01-30T02:35:32;-0.10;99.90
8939;DHT22;4504;48.810;9.172;2023-01-30T02:38:09;-0.10;99.90
8939;DHT22;4504;48.810;9.172;2023-01-30T02:40:45;-0.10;99.90
8939;DHT22;4504;48.810;9.172;2023-01-30T02:43:19;-0.10;99.90
8939;DHT22;4504;48.810;9.172;2023-01-30T02:45:55;-0.10;99.90
8939;DHT22;4504;48.810;9.172;2023-01-30T02:48:27;-0.10;99.90
8939;DHT22;4504;48.810;9.172;2023-01-30T02:50:58;-0.10;99.90
8939;DHT22;4504;48.810;9.172;2023-01-30T02:53:30;-0.10;99.90
8939;DHT22;4504;48.810;9.172;2023-01-30T02:55:57;-0.10;99.90
8939;DHT22;4504;48.810;9.172;2023-01-30T02:58:26;-0.10;99.90
8939;DHT22;4504;48.810;9.172;2023-01-30T03:01:23;-0.10;99.90
8939;DHT22;4504;48.810;9.172;2023-01-30T03:04:11;-0.20;99.90
8939;DHT22;4504;48.810;9.172;2023-01-30T03:06:53;-0.20;99.90
8939;DHT22;4504;48.810;9.172;2023-01-30T03:09:33;-0.20;99.90
8939;DHT22;4504;48.810;9.172;2023-01-30T03:12:07;-0.20;99.90
8939;DHT22;4504;48.810;9.172;2023-01-30T03:14:41;-0.20;99.90
8939;DHT22;4504;48.810;9.172;2023-01-30T03:17:12;-0.20;99.90
8939;DHT22;4504;48.810;9.172;2023-01-30T03:19:42;-0.20;99.90
8939;DHT22;4504;48.810;9.172;2023-01-30T03:22:09;-0.10;99.90
8939;DHT22;4504;48.810;9.172;2023-01-30T03:24:37;-0.10;99.90
8939;DHT22;4504;48.810;9.172;2023-01-30T03:27:08;-0.10;99.90
8939;DHT22;4504;48.810;9.172;2023-01-30T03:29:36;-0.10;99.90
8939;DHT22;4504;48.810;9.172;2023-01-30T03:32:05;0.00;99.90
8939;DHT22;4504;48.810;9.172;2023-01-30T03:34:32;0.00;99.90
8939;DHT22;4504;48.810;9.172;2023-01-30T03:37:00;0.00;99.90
8939;DHT22;4504;48.810;9.172;2023-01-30T03:39:27;0.10;99.90
8939;DHT22;4504;48.810;9.172;2023-01-30T03:41:55;0.10;99.90
8939;DHT22;4504;48.810;9.172;2023-01-30T03:44:22;0.10;99.90
8939;DHT22;4504;48.810;9.172;2023-01-30T03:46:49;0.20;99.90
8939;DHT22;4504;48.810;9.172;2023-01-30T03:49:17;0.20;99.90
8939;DHT22;4504;48.810;9.172;2023-01-30T03:51:45;0.30;99.90
8939;DHT22;4504;48.810;9.172;2023-01-30T03:54:14;0.30;99.90
8939;DHT22;4504;48.810;9.172;2023-01-30T03:56:41;0.30;99.90
8939;DHT22;4504;48.810;9.172;2023-01-30T03:59:08;0.30;99.90
8939;DHT22;4504;48.810;9.172;2023-01-30T04:01:41;0.40;99.90
8939;DHT22;4504;48.810;9.172;2023-01-30T04:04:08;0.50;99.90
8939;DHT22;4504;48.810;9.172;2023-01-30T04:06:35;0.50;99.90
8939;DHT22;4504;48.810;9.172;2023-01-30T04:09:03;0.50;99.90
8939;DHT22;4504;48.810;9.172;2023-01-30T04:11:38;0.50;99.90
8939;DHT22;4504;48.810;9.172;2023-01-30T04:14:05;0.60;99.90
8939;DHT22;4504;48.810;9.172;2023-01-30T04:16:38;0.60;99.90
8939;DHT22;4504;48.810;9.172;2023-01-30T04:19:11;0.60;99.90
8939;DHT22;4504;48.810;9.172;2023-01-30T04:21:39;0.60;99.90
8939;DHT22;4504;48.810;9.172;2023-01-30T04:24:06;0.60;99.90
8939;DHT22;4504;48.810;9.172;2023-01-30T04:26:33;0.60;99.90
8939;DHT22;4504;48.810;9.172;2023-01-30T04:29:02;0.60;99.90
8939;DHT22;4504;48.810;9.172;2023-01-30T04:31:30;0.60;99.90
8939;DHT22;4504;48.810;9.172;2023-01-30T04:34:02;0.70;99.90
8939;DHT22;4504;48.810;9.172;2023-01-30T04:36:30;0.70;99.90
8939;DHT22;4504;48.810;9.172;2023-01-30T04:38:57;0.60;99.90
8939;DHT22;4504;48.810;9.172;2023-01-30T04:41:25;0.70;99.90
8939;DHT22;4504;48.810;9.172;2023-01-30T04:43:56;0.70;99.90
8939;DHT22;4504;48.810;9.172;2023-01-30T04:46:36;0.80;99.90
8939;DHT22;4504;48.810;9.172;2023-01-30T04:49:03;0.80;99.90
8939;DHT22;4504;48.810;9.172;2023-01-30T04:51:30;0.90;99.90
8939;DHT22;4504;48.810;9.172;2023-01-30T04:53:58;1.00;99.90
8939;DHT22;4504;48.810;9.172;2023-01-30T04:56:25;1.00;99.90
8939;DHT22;4504;48.810;9.172;2023-01-30T04:58:52;1.00;99.90
8939;DHT22;4504;48.810;9.172;2023-01-30T05:01:23;1.00;99.90
8939;DHT22;4504;48.810;9.172;2023-01-30T05:03:52;1.10;99.90
8939;DHT22;4504;48.810;9.172;2023-01-30T05:06:20;1.20;99.90
8939;DHT22;4504;48.810;9.172;2023-01-30T05:08:47;1.20;99.90
8939;DHT22;4504;48.810;9.172;2023-01-30T05:11:15;1.10;99.90
8939;DHT22;4504;48.810;9.172;2023-01-30T05:13:42;1.20;99.90
8939;DHT22;4504;48.810;9.172;2023-01-30T05:16:09;1.20;99.90
8939;DHT22;4504;48.810;9.172;2023-01-30T05:18:36;1.20;99.90
8939;DHT22;4504;48.810;9.172;2023-01-30T05:21:07;1.30;99.90
8939;DHT22;4504;48.810;9.172;2023-01-30T05:23:35;1.20;99.90
8939;DHT22;4504;48.810;9.172;2023-01-30T05:26:02;1.20;99.90
8939;DHT22;4504;48.810;9.172;2023-01-30T05:28:30;1.20;99.90
8939;DHT22;4504;48.810;9.172;2023-01-30T05:31:00;1.30;99.90
8939;DHT22;4504;48.810;9.172;2023-01-30T05:33:28;1.20;99.90
8939;DHT22;4504;48.810;9.172;2023-01-30T05:35:54;1.20;99.90
8939;DHT22;4504;48.810;9.172;2023-01-30T05:38:23;1.30;99.90
8939;DHT22;4504;48.810;9.172;2023-01-30T05:40:57;1.30;99.90
8939;DHT22;4504;48.810;9.172;2023-01-30T05:43:25;1.30;99.90
8939;DHT22;4504;48.810;9.172;2023-01-30T05:45:52;1.30;99.90
8939;DHT22;4504;48.810;9.172;2023-01-30T05:48:20;1.30;99.90
8939;DHT22;4504;48.810;9.172;2023-01-30T05:50:49;1.30;99.90
8939;DHT22;4504;48.810;9.172;2023-01-30T05:53:16;1.30;99.90
8939;DHT22;4504;48.810;9.172;2023-01-30T05:55:44;1.30;99.90
8939;DHT22;4504;48.810;9.172;2023-01-30T05:58:11;1.40;99.90
8939;DHT22;4504;48.810;9.172;2023-01-30T06:00:38;1.30;99.90
8939;DHT22;4504;48.810;9.172;2023-01-30T06:03:05;1.30;99.90
8939;DHT22;4504;48.810;9.172;2023-01-30T06:05:32;1.40;99.90
8939;DHT22;4504;48.810;9.172;2023-01-30T06:07:59;1.30;99.90
8939;DHT22;4504;48.810;9.172;2023-01-30T06:10:26;1.40;99.90
8939;DHT22;4504;48.810;9.172;2023-01-30T06:12:54;1.40;99.90
8939;DHT22;4504;48.810;9.172;2023-01-30T06:15:21;1.40;99.90
8939;DHT22;4504;48.810;9.172;2023-01-30T06:17:48;1.50;99.90
8939;DHT22;4504;48.810;9.172;2023-01-30T06:20:15;1.40;99.90
8939;DHT22;4504;48.810;9.172;2023-01-30T06:22:42;1.50;99.90
8939;DHT22;4504;48.810;9.172;2023-01-30T06:25:09;1.50;99.90
8939;DHT22;4504;48.810;9.172;2023-01-30T06:27:36;1.50;99.90
8939;DHT22;4504;48.810;9.172;2023-01-30T06:30:06;1.50;99.90
8939;DHT22;4504;48.810;9.172;2023-01-30T06:32:33;1.40;99.90
8939;DHT22;4504;48.810;9.172;2023-01-30T06:35:00;1.40;99.90
8939;DHT22;4504;48.810;9.172;2023-01-30T06:37:27;1.40;99.90
8939;DHT22;4504;48.810;9.172;2023-01-30T06:39:54;1.40;99.90
8939;DHT22;4504;48.810;9.172;2023-01-30T06:42:20;1.40;99.90
8939;DHT22;4504;48.810;9.172;2023-01-30T06:44:47;1.50;99.90
8939;DHT22;4504;48.810;9.172;2023-01-30T06:47:16;1.50;99.90
8939;DHT22;4504;48.810;9.172;2023-01-30T06:49:42;1.50;99.90
8939;DHT22;4504;48.810;9.172;2023-01-30T06:52:09;1.50;99.90
8939;DHT22;4504;48.810;9.172;2023-01-30T06:54:36;1.50;99.90
8939;DHT22;4504;48.810;9.172;2023-01-30T06:57:03;1.50;99.90
8939;DHT22;4504;48.810;9.172;2023-01-30T06:59:30;1.60;99.90
8939;DHT22;4504;48.810;9.172;2023-01-30T07:01:57;1.60;99.90
8939;DHT22;4504;48.810;9.172;2023-01-30T07:04:25;1.50;99.90
8939;DHT22;4504;48.810;9.172;2023-01-30T07:06:52;1.60;99.90
8939;DHT22;4504;48.810;9.172;2023-01-30T07:09:19;1.60;99.90
8939;DHT22;4504;48.810;9.172;2023-01-30T07:11:46;1.60;99.90
8939;DHT22;4504;48.810;9.172;2023-01-30T07:14:14;1.60;99.90
8939;DHT22;4504;48.810;9.172;2023-01-30T07:16:41;1.70;99.90
8939;DHT22;4504;48.810;9.172;2023-01-30T07:19:08;1.60;99.90
8939;DHT22;4504;48.810;9.172;2023-01-30T07:21:37;1.70;99.90
8939;DHT22;4504;48.810;9.172;2023-01-30T07:24:04;1.60;99.90
8939;DHT22;4504;48.810;9.172;2023-01-30T07:26:31;1.60;99.90
8939;DHT22;4504;48.810;9.172;2023-01-30T07:28:58;1.60;99.90
8939;DHT22;4504;48.810;9.172;2023-01-30T07:31:25;1.70;99.90
8939;DHT22;4504;48.810;9.172;2023-01-30T07:33:52;1.70;99.90
8939;DHT22;4504;48.810;9.172;2023-01-30T07:36:19;1.70;99.90
8939;DHT22;4504;48.810;9.172;2023-01-30T07:38:48;1.70;99.90
8939;DHT22;4504;48.810;9.172;2023-01-30T07:41:15;1.70;99.90
8939;DHT22;4504;48.810;9.172;2023-01-30T07:43:42;1.70;99.90
8939;DHT22;4504;48.810;9.172;2023-01-30T07:46:09;1.80;99.90
8939;DHT22;4504;48.810;9.172;2023-01-30T07:48:36;1.70;99.90
8939;DHT22;4504;48.810;9.172;2023-01-30T07:51:03;1.80;99.90
8939;DHT22;4504;48.810;9.172;2023-01-30T07:53:29;1.80;99.90
8939;DHT22;4504;48.810;9.172;2023-01-30T07:55:58;1.90;99.90
8939;DHT22;4504;48.810;9.172;2023-01-30T07:58:25;1.90;99.90
8939;DHT22;4504;48.810;9.172;2023-01-30T08:00:54;2.00;99.90
8939;DHT22;4504;48.810;9.172;2023-01-30T08:03:21;2.00;99.90
8939;DHT22;4504;48.810;9.172;2023-01-30T08:05:48;2.00;99.90
8939;DHT22;4504;48.810;9.172;2023-01-30T08:08:15;2.10;99.90
8939;DHT22;4504;48.810;9.172;2023-01-30T08:10:42;2.10;99.90
8939;DHT22;4504;48.810;9.172;2023-01-30T08:13:11;2.10;99.90
8939;DHT22;4504;48.810;9.172;2023-01-30T08:15:38;2.10;99.90
8939;DHT22;4504;48.810;9.172;2023-01-30T08:18:05;2.10;99.90
8939;DHT22;4504;48.810;9.172;2023-01-30T08:20:32;2.20;99.90
8939;DHT22;4504;48.810;9.172;2023-01-30T08:22:59;2.30;99.90
8939;DHT22;4504;48.810;9.172;2023-01-30T08:25:27;2.30;99.90
8939;DHT22;4504;48.810;9.172;2023-01-30T08:27:55;2.30;99.90
8939;DHT22;4504;48.810;9.172;2023-01-30T08:30:23;2.20;99.90
8939;DHT22;4504;48.810;9.172;2023-01-30T08:32:50;2.20;99.90
8939;DHT22;4504;48.810;9.172;2023-01-30T08:35:17;2.10;99.90
8939;DHT22;4504;48.810;9.172;2023-01-30T08:37:44;2.10;99.90
8939;DHT22;4504;48.810;9.172;2023-01-30T08:40:12;2.10;99.90
8939;DHT22;4504;48.810;9.172;2023-01-30T08:42:39;2.10;99.90
8939;DHT22;4504;48.810;9.172;2023-01-30T08:45:07;2.20;99.90
8939;DHT22;4504;48.810;9.172;2023-01-30T08:47:35;2.20;99.90
8939;DHT22;4504;48.810;9.172;2023-01-30T08:50:03;2.20;99.90
8939;DHT22;4504;48.810;9.172;2023-01-30T08:52:31;2.20;99.90
8939;DHT22;4504;48.810;9.172;2023-01-30T08:54:58;2.30;99.90
8939;DHT22;4504;48.810;9.172;2023-01-30T08:57:25;2.30;99.90
8939;DHT22;4504;48.810;9.172;2023-01-30T08:59:52;2.30;99.90
8939;DHT22;4504;48.810;9.172;2023-01-30T09:02:19;2.40;99.90
8939;DHT22;4504;48.810;9.172;2023-01-30T09:04:47;2.50;99.90
8939;DHT22;4504;48.810;9.172;2023-01-30T09:07:14;2.60;99.90
8939;DHT22;4504;48.810;9.172;2023-01-30T09:09:46;2.50;99.90
8939;DHT22;4504;48.810;9.172;2023-01-30T09:12:14;2.60;99.90
8939;DHT22;4504;48.810;9.172;2023-01-30T09:14:41;2.60;99.90
8939;DHT22;4504;48.810;9.172;2023-01-30T09:17:08;2.80;99.90
8939;DHT22;4504;48.810;9.172;2023-01-30T09:19:35;2.80;99.90
8939;DHT22;4504;48.810;9.172;2023-01-30T09:22:04;2.80;99.90
8939;DHT22;4504;48.810;9.172;2023-01-30T09:24:32;2.90;99.90
8939;DHT22;4504;48.810;9.172;2023-01-30T09:26:59;2.90;99.90
8939;DHT22;4504;48.810;9.172;2023-01-30T09:29:27;2.90;99.90
8939;DHT22;4504;48.810;9.172;2023-01-30T09:31:55;2.90;99.90
8939;DHT22;4504;48.810;9.172;2023-01-30T09:34:22;3.00;99.90
8939;DHT22;4504;48.810;9.172;2023-01-30T09:36:52;3.00;99.90
8939;DHT22;4504;48.810;9.172;2023-01-30T09:39:20;3.00;99.90
8939;DHT22;4504;48.810;9.172;2023-01-30T09:42:20;3.00;99.90
8939;DHT22;4504;48.810;9.172;2023-01-30T09:48:05;3.00;99.90
8939;DHT22;4504;48.810;9.172;2023-01-30T09:53:33;3.20;99.90
8939;DHT22;4504;48.810;9.172;2023-01-30T09:56:03;3.30;99.90
8939;DHT22;4504;48.810;9.172;2023-01-30T09:58:41;3.30;99.90
8939;DHT22;4504;48.810;9.172;2023-01-30T10:01:17;3.40;99.90
8939;DHT22;4504;48.810;9.172;2023-01-30T10:03:56;3.40;99.90
8939;DHT22;4504;48.810;9.172;2023-01-30T10:06:26;3.50;99.90
8939;DHT22;4504;48.810;9.172;2023-01-30T10:08:56;3.40;99.90
8939;DHT22;4504;48.810;9.172;2023-01-30T10:11:42;3.40;99.90
8939;DHT22;4504;48.810;9.172;2023-01-30T10:14:22;3.50;99.90
8939;DHT22;4504;48.810;9.172;2023-01-30T10:16:59;3.60;99.90
8939;DHT22;4504;48.810;9.172;2023-01-30T10:19:43;3.60;99.90
8939;DHT22;4504;48.810;9.172;2023-01-30T10:22:23;3.70;99.90
8939;DHT22;4504;48.810;9.172;2023-01-30T10:25:01;3.70;99.90
8939;DHT22;4504;48.810;9.172;2023-01-30T10:27:34;3.70;99.90
8939;DHT22;4504;48.810;9.172;2023-01-30T10:30:04;3.70;99.90
8939;DHT22;4504;48.810;9.172;2023-01-30T10:32:40;3.70;99.90
8939;DHT22;4504;48.810;9.172;2023-01-30T10:35:14;3.70;99.90
8939;DHT22;4504;48.810;9.172;2023-01-30T10:37:45;3.80;99.90
8939;DHT22;4504;48.810;9.172;2023-01-30T10:40:20;3.90;99.90
8939;DHT22;4504;48.810;9.172;2023-01-30T10:42:56;3.80;99.90
8939;DHT22;4504;48.810;9.172;2023-01-30T10:45:29;3.90;99.90
8939;DHT22;4504;48.810;9.172;2023-01-30T10:48:05;3.90;99.90
8939;DHT22;4504;48.810;9.172;2023-01-30T10:50:45;4.00;99.90
8939;DHT22;4504;48.810;9.172;2023-01-30T10:53:15;4.00;99.90
8939;DHT22;4504;48.810;9.172;2023-01-30T10:55:46;4.00;99.90
8939;DHT22;4504;48.810;9.172;2023-01-30T10:58:19;4.00;99.90
8939;DHT22;4504;48.810;9.172;2023-01-30T11:00:55;4.10;99.90
8939;DHT22;4504;48.810;9.172;2023-01-30T11:03:30;4.10;99.90
8939;DHT22;4504;48.810;9.172;2023-01-30T11:06:01;4.10;99.90
8939;DHT22;4504;48.810;9.172;2023-01-30T11:08:31;4.00;99.90
8939;DHT22;4504;48.810;9.172;2023-01-30T11:11:00;4.10;99.90
8939;DHT22;4504;48.810;9.172;2023-01-30T11:13:30;4.10;99.90
8939;DHT22;4504;48.810;9.172;2023-01-30T11:16:04;4.10;99.90
8939;DHT22;4504;48.810;9.172;2023-01-30T11:18:32;4.00;99.90
8939;DHT22;4504;48.810;9.172;2023-01-30T11:21:04;4.00;99.90
8939;DHT22;4504;48.810;9.172;2023-01-30T11:23:35;4.00;99.90
8939;DHT22;4504;48.810;9.172;2023-01-30T11:26:05;4.10;99.90
8939;DHT22;4504;48.810;9.172;2023-01-30T11:28:40;4.10;99.90
8939;DHT22;4504;48.810;9.172;2023-01-30T11:31:17;4.00;99.90
8939;DHT22;4504;48.810;9.172;2023-01-30T11:33:44;4.10;99.90
8939;DHT22;4504;48.810;9.172;2023-01-30T11:36:24;4.10;99.90
8939;DHT22;4504;48.810;9.172;2023-01-30T11:38:56;4.00;99.90
8939;DHT22;4504;48.810;9.172;2023-01-30T11:41:23;4.10;99.90
8939;DHT22;4504;48.810;9.172;2023-01-30T11:43:58;4.00;99.90
8939;DHT22;4504;48.810;9.172;2023-01-30T11:46:29;3.90;99.90
8939;DHT22;4504;48.810;9.172;2023-01-30T11:49:00;3.90;99.90
8939;DHT22;4504;48.810;9.172;2023-01-30T11:51:27;3.90;99.90
8939;DHT22;4504;48.810;9.172;2023-01-30T11:53:57;3.80;99.90
8939;DHT22;4504;48.810;9.172;2023-01-30T11:56:29;3.80;99.90
8939;DHT22;4504;48.810;9.172;2023-01-30T11:59:02;3.80;99.90
8939;DHT22;4504;48.810;9.172;2023-01-30T12:01:31;3.80;99.90
8939;DHT22;4504;48.810;9.172;2023-01-30T12:03:59;3.80;99.90
8939;DHT22;4504;48.810;9.172;2023-01-30T12:06:29;3.80;99.90
8939;DHT22;4504;48.810;9.172;2023-01-30T12:08:57;3.80;99.90
8939;DHT22;4504;48.810;9.172;2023-01-30T12:11:29;3.80;99.90
8939;DHT22;4504;48.810;9.172;2023-01-30T12:14:12;3.70;99.90
8939;DHT22;4504;48.810;9.172;2023-01-30T12:16:48;3.70;99.90
8939;DHT22;4504;48.810;9.172;2023-01-30T12:19:28;3.60;99.90
8939;DHT22;4504;48.810;9.172;2023-01-30T12:22:01;3.60;99.90
8939;DHT22;4504;48.810;9.172;2023-01-30T12:24:35;3.60;99.90
8939;DHT22;4504;48.810;9.172;2023-01-30T12:27:11;3.60;99.90
8939;DHT22;4504;48.810;9.172;2023-01-30T12:29:53;3.60;99.90
8939;DHT22;4504;48.810;9.172;2023-01-30T12:32:26;3.50;99.90
8939;DHT22;4504;48.810;9.172;2023-01-30T12:34:53;3.50;99.90
8939;DHT22;4504;48.810;9.172;2023-01-30T12:37:32;3.50;99.90
8939;DHT22;4504;48.810;9.172;2023-01-30T12:40:10;3.40;99.90
8939;DHT22;4504;48.810;9.172;2023-01-30T12:45:55;3.40;99.90
8939;DHT22;4504;48.810;9.172;2023-01-30T12:48:45;3.40;99.90
8939;DHT22;4504;48.810;9.172;2023-01-30T12:51:25;3.40;99.90
8939;DHT22;4504;48.810;9.172;2023-01-30T12:53:59;3.40;99.90
8939;DHT22;4504;48.810;9.172;2023-01-30T12:56:45;3.40;99.90
8939;DHT22;4504;48.810;9.172;2023-01-30T12:59:17;3.40;99.90
8939;DHT22;4504;48.810;9.172;2023-01-30T13:02:00;3.50;99.90
8939;DHT22;4504;48.810;9.172;2023-01-30T13:04:40;3.50;99.90
8939;DHT22;4504;48.810;9.172;2023-01-30T13:07:16;3.50;99.90
8939;DHT22;4504;48.810;9.172;2023-01-30T13:10:05;3.50;99.90
8939;DHT22;4504;48.810;9.172;2023-01-30T13:12:39;3.40;99.90
8939;DHT22;4504;48.810;9.172;2023-01-30T13:15:17;3.50;99.90
8939;DHT22;4504;48.810;9.172;2023-01-30T13:17:59;3.50;99.90
8939;DHT22;4504;48.810;9.172;2023-01-30T13:20:51;3.60;99.90
8939;DHT22;4504;48.810;9.172;2023-01-30T13:23:25;3.60;99.90
8939;DHT22;4504;48.810;9.172;2023-01-30T13:25:57;3.60;99.90
8939;DHT22;4504;48.810;9.172;2023-01-30T13:28:30;3.60;99.90
8939;DHT22;4504;48.810;9.172;2023-01-30T13:30:59;3.60;99.90
8939;DHT22;4504;48.810;9.172;2023-01-30T13:33:32;3.60;99.90
8939;DHT22;4504;48.810;9.172;2023-01-30T13:36:05;3.70;99.90
8939;DHT22;4504;48.810;9.172;2023-01-30T13:38:36;3.80;99.90
8939;DHT22;4504;48.810;9.172;2023-01-30T13:41:06;3.90;99.90
8939;DHT22;4504;48.810;9.172;2023-01-30T13:43:37;4.10;99.90
8939;DHT22;4504;48.810;9.172;2023-01-30T13:46:07;4.10;99.90
8939;DHT22;4504;48.810;9.172;2023-01-30T13:48:47;4.20;99.90
8939;DHT22;4504;48.810;9.172;2023-01-30T13:51:26;4.20;99.90
8939;DHT22;4504;48.810;9.172;2023-01-30T13:54:05;4.30;99.90
8939;DHT22;4504;48.810;9.172;2023-01-30T13:56:38;4.40;99.90
8939;DHT22;4504;48.810;9.172;2023-01-30T13:59:13;4.50;99.90
8939;DHT22;4504;48.810;9.172;2023-01-30T14:02:06;4.50;99.90
8939;DHT22;4504;48.810;9.172;2023-01-30T14:04:47;4.60;99.90
8939;DHT22;4504;48.810;9.172;2023-01-30T14:07:28;4.50;99.90
8939;DHT22;4504;48.810;9.172;2023-01-30T14:10:11;4.60;99.90
8939;DHT22;4504;48.810;9.172;2023-01-30T14:12:41;4.60;99.90
8939;DHT22;4504;48.810;9.172;2023-01-30T14:15:23;4.70;99.90
8939;DHT22;4504;48.810;9.172;2023-01-30T14:17:58;4.60;99.90
8939;DHT22;4504;48.810;9.172;2023-01-30T14:20:29;4.70;99.90
8939;DHT22;4504;48.810;9.172;2023-01-30T14:22:58;4.70;99.90
8939;DHT22;4504;48.810;9.172;2023-01-30T14:25:47;4.60;99.90
8939;DHT22;4504;48.810;9.172;2023-01-30T14:28:47;4.60;99.90
8939;DHT22;4504;48.810;9.172;2023-01-30T14:34:54;4.60;99.90
8939;DHT22;4504;48.810;9.172;2023-01-30T14:37:48;4.70;99.90
8939;DHT22;4504;48.810;9.172;2023-01-30T14:40:32;4.60;99.90
8939;DHT22;4504;48.810;9.172;2023-01-30T14:43:33;4.60;99.90
8939;DHT22;4504;48.810;9.172;2023-01-30T14:46:01;4.60;99.90
8939;DHT22;4504;48.810;9.172;2023-01-30T14:48:32;4.60;99.90
8939;DHT22;4504;48.810;9.172;2023-01-30T14:51:20;4.60;99.90
8939;DHT22;4504;48.810;9.172;2023-01-30T14:53:55;4.70;99.90
8939;DHT22;4504;48.810;9.172;2023-01-30T14:56:39;4.60;99.90
8939;DHT22;4504;48.810;9.172;2023-01-30T14:59:17;4.70;99.90
8939;DHT22;4504;48.810;9.172;2023-01-30T15:02:05;4.60;99.90
8939;DHT22;4504;48.810;9.172;2023-01-30T15:04:41;4.60;99.90
8939;DHT22;4504;48.810;9.172;2023-01-30T15:07:12;4.50;99.90
8939;DHT22;4504;48.810;9.172;2023-01-30T15:09:49;4.50;99.90
8939;DHT22;4504;48.810;9.172;2023-01-30T15:15:19;4.50;99.90
8939;DHT22;4504;48.810;9.172;2023-01-30T15:18:00;4.50;99.90
8939;DHT22;4504;48.810;9.172;2023-01-30T15:20:37;4.50;99.90
8939;DHT22;4504;48.810;9.172;2023-01-30T15:23:25;4.50;99.90
8939;DHT22;4504;48.810;9.172;2023-01-30T15:26:10;4.50;99.90
8939;DHT22;4504;48.810;9.172;2023-01-30T15:28:45;4.50;99.90
8939;DHT22;4504;48.810;9.172;2023-01-30T15:31:15;4.50;99.90
8939;DHT22;4504;48.810;9.172;2023-01-30T15:33:45;4.60;99.90
8939;DHT22;4504;48.810;9.172;2023-01-30T15:36:22;4.50;99.90
8939;DHT22;4504;48.810;9.172;2023-01-30T15:38:58;4.50;99.90
8939;DHT22;4504;48.810;9.172;2023-01-30T15:41:29;4.50;99.90
8939;DHT22;4504;48.810;9.172;2023-01-30T15:44:32;4.40;99.90
8939;DHT22;4504;48.810;9.172;2023-01-30T15:47:32;4.40;99.90
8939;DHT22;4504;48.810;9.172;2023-01-30T15:50:02;4.40;99.90
8939;DHT22;4504;48.810;9.172;2023-01-30T15:52:36;4.50;99.90
8939;DHT22;4504;48.810;9.172;2023-01-30T15:55:06;4.50;99.90
8939;DHT22;4504;48.810;9.172;2023-01-30T15:57:38;4.50;99.90
8939;DHT22;4504;48.810;9.172;2023-01-30T16:00:07;4.50;99.90
8939;DHT22;4504;48.810;9.172;2023-01-30T16:02:41;4.40;99.90
8939;DHT22;4504;48.810;9.172;2023-01-30T16:05:14;4.40;99.90
8939;DHT22;4504;48.810;9.172;2023-01-30T16:07:42;4.50;99.90
8939;DHT22;4504;48.810;9.172;2023-01-30T16:10:12;4.40;99.90
8939;DHT22;4504;48.810;9.172;2023-01-30T16:12:41;4.50;99.90
8939;DHT22;4504;48.810;9.172;2023-01-30T16:15:16;4.40;99.90
8939;DHT22;4504;48.810;9.172;2023-01-30T16:17:50;4.40;99.90
8939;DHT22;4504;48.810;9.172;2023-01-30T16:20:20;4.40;99.90
8939;DHT22;4504;48.810;9.172;2023-01-30T16:22:48;4.40;99.90
8939;DHT22;4504;48.810;9.172;2023-01-30T16:25:19;4.50;99.90
8939;DHT22;4504;48.810;9.172;2023-01-30T16:27:49;4.40;99.90
8939;DHT22;4504;48.810;9.172;2023-01-30T16:30:24;4.50;99.90
8939;DHT22;4504;48.810;9.172;2023-01-30T16:32:53;4.50;99.90
8939;DHT22;4504;48.810;9.172;2023-01-30T16:35:28;4.50;99.90
8939;DHT22;4504;48.810;9.172;2023-01-30T16:37:58;4.50;99.90
8939;DHT22;4504;48.810;9.172;2023-01-30T16:40:27;4.50;99.90
8939;DHT22;4504;48.810;9.172;2023-01-30T16:42:58;4.50;99.90
8939;DHT22;4504;48.810;9.172;2023-01-30T16:45:57;4.50;99.90
8939;DHT22;4504;48.810;9.172;2023-01-30T16:48:32;4.40;99.90
8939;DHT22;4504;48.810;9.172;2023-01-30T16:51:11;4.40;99.90
8939;DHT22;4504;48.810;9.172;2023-01-30T16:53:49;4.40;99.90
8939;DHT22;4504;48.810;9.172;2023-01-30T16:56:17;4.40;99.90
8939;DHT22;4504;48.810;9.172;2023-01-30T16:58:49;4.40;99.90
8939;DHT22;4504;48.810;9.172;2023-01-30T17:01:17;4.40;99.90
8939;DHT22;4504;48.810;9.172;2023-01-30T17:03:50;4.50;99.90
8939;DHT22;4504;48.810;9.172;2023-01-30T17:06:21;4.60;99.90
8939;DHT22;4504;48.810;9.172;2023-01-30T17:08:51;4.40;99.90